Time;durP1;ratioP1;P1;durP2;ratioP2;P2;SDS_P1;SDS_P2;PMS_P1;PMS_P2;Temp;Humidity;BMP_temperature;BMP_pressure;BME280_temperature;BME280_humidity;BME280_pressure;Samples;Min_cycle;Max_cycle;Signal;HPM_P1;HPM_P2
2022/03/11 00:02:02;;;;;;;;;;;9.00;74.20;;;;;;5087492;28;19915;-74
2022/03/11 00:04:27;;;;;;;;;;;9.00;74.30;;;;;;5087437;28;20003;-74
2022/03/11 00:06:53;;;;;;;;;;;9.00;74.20;;;;;;5087559;28;19920;-74
2022/03/11 00:09:19;;;;;;;;;;;9.00;74.40;;;;;;5087406;28;19916;-74
2022/03/11 00:11:44;;;;;;;;;;;9.00;74.40;;;;;;5090017;28;20259;-74
2022/03/11 00:14:10;;;;;;;;;;;9.10;74.60;;;;;;5091244;28;20006;-74
2022/03/11 00:16:35;;;;;;;;;;;9.10;74.80;;;;;;5090903;28;19912;-74
2022/03/11 00:19:01;;;;;;;;;;;9.20;74.80;;;;;;5090980;28;19916;-74
2022/03/11 00:21:26;;;;;;;;;;;9.20;75.00;;;;;;5091018;28;20267;-74
2022/03/11 00:23:52;;;;;;;;;;;9.20;75.00;;;;;;5089750;28;19920;-74
2022/03/11 00:26:17;;;;;;;;;;;9.20;74.90;;;;;;5090915;28;19919;-74
2022/03/11 00:28:43;;;;;;;;;;;9.30;74.90;;;;;;5090918;28;19947;-74
2022/03/11 00:31:08;;;;;;;;;;;9.30;75.00;;;;;;5090859;28;19916;-74
2022/03/11 00:33:34;;;;;;;;;;;9.30;75.10;;;;;;5089405;28;19912;-74
2022/03/11 00:36:00;;;;;;;;;;;9.40;75.00;;;;;;5090295;28;19967;-74
2022/03/11 00:38:25;;;;;;;;;;;9.40;75.00;;;;;;5090699;28;19916;-74
2022/03/11 00:40:56;;;;;;;;;;;9.40;75.10;;;;;;5089344;28;19909;-74
2022/03/11 00:43:24;;;;;;;;;;;9.30;75.70;;;;;;5090715;28;20026;-74
2022/03/11 00:45:50;;;;;;;;;;;9.30;75.30;;;;;;5090540;28;20382;-74
2022/03/11 00:48:16;;;;;;;;;;;9.30;75.40;;;;;;5089029;28;19912;-74
2022/03/11 00:50:42;;;;;;;;;;;9.30;75.50;;;;;;5090446;28;20440;-74
2022/03/11 00:53:07;;;;;;;;;;;9.30;75.70;;;;;;5090636;28;19935;-74
2022/03/11 00:55:33;;;;;;;;;;;9.30;75.90;;;;;;5090507;28;19930;-74
2022/03/11 00:57:58;;;;;;;;;;;9.30;76.40;;;;;;5090191;28;19927;-74
2022/03/11 01:00:24;;;;;;;;;;;9.30;76.30;;;;;;5090413;28;20350;-74
2022/03/11 01:02:49;;;;;;;;;;;9.30;76.40;;;;;;5090228;28;20139;-74
2022/03/11 01:05:15;;;;;;;;;;;9.30;76.60;;;;;;5090143;28;19912;-73
2022/03/11 01:07:41;;;;;;;;;;;9.30;76.40;;;;;;5090130;28;19915;-74
2022/03/11 01:10:07;;;;;;;;;;;9.30;76.60;;;;;;5090129;28;20412;-74
2022/03/11 01:12:33;;;;;;;;;;;9.30;76.50;;;;;;5088708;28;19958;-73
2022/03/11 01:14:58;;;;;;;;;;;9.30;76.50;;;;;;5090014;28;19916;-74
2022/03/11 01:17:24;;;;;;;;;;;9.30;76.60;;;;;;5089869;28;19908;-73
2022/03/11 01:19:49;;;;;;;;;;;9.30;76.60;;;;;;5090475;28;19913;-74
2022/03/11 01:22:15;;;;;;;;;;;9.30;76.60;;;;;;5089277;28;19996;-74
2022/03/11 01:24:40;;;;;;;;;;;9.30;76.50;;;;;;5089976;28;19917;-74
2022/03/11 01:27:06;;;;;;;;;;;9.30;76.70;;;;;;5089753;28;20386;-74
2022/03/11 01:29:32;;;;;;;;;;;9.30;76.80;;;;;;5088547;28;19916;-74
2022/03/11 01:31:57;;;;;;;;;;;9.30;76.90;;;;;;5089693;28;20332;-74
2022/03/11 01:34:23;;;;;;;;;;;9.30;76.80;;;;;;5089627;28;19908;-74
2022/03/11 01:36:48;;;;;;;;;;;9.30;77.20;;;;;;5089567;28;19916;-74
2022/03/11 01:39:14;;;;;;;;;;;9.30;77.20;;;;;;5089583;28;19919;-74
2022/03/11 01:41:39;;;;;;;;;;;9.30;77.30;;;;;;5089526;28;19920;-74
2022/03/11 01:44:06;;;;;;;;;;;9.30;77.40;;;;;;5089562;28;19936;-74
2022/03/11 01:46:32;;;;;;;;;;;9.30;77.50;;;;;;5089351;28;20008;-74
2022/03/11 01:48:58;;;;;;;;;;;9.30;77.50;;;;;;5089225;28;20102;-74
2022/03/11 01:51:24;;;;;;;;;;;9.30;77.50;;;;;;5089362;28;20336;-74
2022/03/11 01:53:50;;;;;;;;;;;9.30;77.70;;;;;;5089481;28;19919;-74
2022/03/11 01:56:16;;;;;;;;;;;9.30;78.00;;;;;;5089537;28;19912;-74
2022/03/11 01:58:41;;;;;;;;;;;9.30;78.00;;;;;;5089178;28;19926;-74
2022/03/11 02:01:08;;;;;;;;;;;9.30;78.20;;;;;;5089146;28;20374;-74
2022/03/11 02:03:34;;;;;;;;;;;9.30;78.30;;;;;;5089110;28;20309;-74
2022/03/11 02:06:01;;;;;;;;;;;9.30;78.40;;;;;;5089030;28;19912;-74
2022/03/11 02:08:26;;;;;;;;;;;9.30;78.80;;;;;;5087536;28;19965;-74
2022/03/11 02:10:53;;;;;;;;;;;9.30;78.40;;;;;;5089098;28;20386;-74
2022/03/11 02:13:18;;;;;;;;;;;9.30;78.40;;;;;;5071436;28;20349;-74
2022/03/11 02:15:44;;;;;;;;;;;9.30;78.50;;;;;;5087651;28;19964;-74
2022/03/11 02:18:09;;;;;;;;;;;9.20;78.60;;;;;;5088691;28;19916;-74
2022/03/11 02:20:35;;;;;;;;;;;9.30;78.60;;;;;;5088782;28;19908;-74
2022/03/11 02:23:01;;;;;;;;;;;9.30;78.70;;;;;;5087402;28;19934;-73
2022/03/11 02:25:27;;;;;;;;;;;9.30;78.60;;;;;;5087588;28;20282;-74
2022/03/11 02:27:52;;;;;;;;;;;9.30;78.80;;;;;;5088631;28;19912;-74
2022/03/11 02:30:20;;;;;;;;;;;9.30;79.10;;;;;;5087350;28;19923;-74
2022/03/11 02:32:45;;;;;;;;;;;9.30;79.10;;;;;;5088750;28;20337;-74
2022/03/11 02:35:11;;;;;;;;;;;9.30;79.00;;;;;;5088432;28;19924;-74
2022/03/11 02:37:37;;;;;;;;;;;9.30;79.00;;;;;;5088441;28;19985;-74
2022/03/11 02:40:03;;;;;;;;;;;9.30;79.00;;;;;;5088635;28;19908;-74
2022/03/11 02:42:29;;;;;;;;;;;9.30;79.20;;;;;;5088510;28;19969;-74
2022/03/11 02:44:54;;;;;;;;;;;9.20;79.00;;;;;;5088482;28;19912;-74
2022/03/11 02:47:20;;;;;;;;;;;9.20;78.90;;;;;;5088241;28;20414;-74
2022/03/11 02:49:46;;;;;;;;;;;9.20;79.00;;;;;;5088444;28;20362;-74
2022/03/11 02:52:11;;;;;;;;;;;9.20;79.10;;;;;;5088335;28;19920;-74
2022/03/11 02:54:37;;;;;;;;;;;9.20;79.30;;;;;;5088241;28;19967;-74
2022/03/11 02:57:03;;;;;;;;;;;9.20;79.20;;;;;;5088221;28;19912;-74
2022/03/11 02:59:28;;;;;;;;;;;9.20;79.20;;;;;;5088189;28;19958;-74
2022/03/11 03:01:54;;;;;;;;;;;9.20;79.30;;;;;;5088143;28;19916;-74
2022/03/11 03:04:19;;;;;;;;;;;9.20;79.50;;;;;;5088238;28;19927;-74
2022/03/11 03:06:45;;;;;;;;;;;9.20;79.40;;;;;;5086701;28;20548;-73
2022/03/11 03:09:11;;;;;;;;;;;9.20;79.40;;;;;;5088151;28;19916;-74
2022/03/11 03:11:36;;;;;;;;;;;9.20;79.40;;;;;;5088112;28;19908;-74
2022/03/11 03:14:02;;;;;;;;;;;9.20;79.40;;;;;;5088084;28;19957;-74
2022/03/11 03:16:28;;;;;;;;;;;9.20;79.60;;;;;;5087957;28;19916;-74
2022/03/11 03:18:53;;;;;;;;;;;9.10;79.70;;;;;;5088052;28;20371;-74
2022/03/11 03:21:19;;;;;;;;;;;9.10;79.80;;;;;;5086842;28;19934;-74
2022/03/11 03:23:44;;;;;;;;;;;9.20;79.90;;;;;;5088377;28;20332;-74
2022/03/11 03:26:11;;;;;;;;;;;9.20;79.90;;;;;;5087906;28;20007;-74
2022/03/11 03:28:36;;;;;;;;;;;9.20;79.90;;;;;;5087849;28;20289;-74
2022/03/11 03:31:02;;;;;;;;;;;9.20;79.90;;;;;;5087854;28;20059;-74
2022/03/11 03:33:28;;;;;;;;;;;9.10;79.80;;;;;;5087963;28;20367;-74
2022/03/11 03:35:53;;;;;;;;;;;9.10;79.90;;;;;;5086423;28;20018;-74
2022/03/11 03:38:19;;;;;;;;;;;9.10;80.00;;;;;;5087969;28;19912;-74
2022/03/11 03:40:45;;;;;;;;;;;9.10;80.60;;;;;;5087828;28;19916;-74
2022/03/11 03:43:10;;;;;;;;;;;9.10;80.20;;;;;;5087800;28;19916;-74
2022/03/11 03:45:36;;;;;;;;;;;9.10;80.30;;;;;;5088673;28;20325;-74
2022/03/11 03:48:01;;;;;;;;;;;9.20;80.30;;;;;;5090298;28;19916;-74
2022/03/11 03:50:27;;;;;;;;;;;9.20;80.40;;;;;;5091589;28;19923;-68
2022/03/11 03:52:53;;;;;;;;;;;9.20;80.40;;;;;;5091609;28;19934;-74
2022/03/11 03:55:19;;;;;;;;;;;9.20;80.40;;;;;;5091665;28;19961;-74
2022/03/11 03:57:44;;;;;;;;;;;9.20;80.20;;;;;;5091550;28;20447;-74
2022/03/11 04:00:10;;;;;;;;;;;9.30;80.30;;;;;;5091435;28;19915;-74
2022/03/11 04:02:37;;;;;;;;;;;9.20;80.20;;;;;;5091588;28;19912;-74
2022/03/11 04:05:03;;;;;;;;;;;9.20;80.30;;;;;;5091496;28;19912;-74
2022/03/11 04:07:29;;;;;;;;;;;9.20;80.30;;;;;;5091293;28;19912;-74
2022/03/11 04:09:55;;;;;;;;;;;9.30;80.50;;;;;;5091218;28;19920;-73
2022/03/11 04:12:20;;;;;;;;;;;9.30;80.50;;;;;;5091367;28;20188;-74
2022/03/11 04:14:46;;;;;;;;;;;9.30;80.50;;;;;;5091201;28;19974;-74
2022/03/11 04:17:11;;;;;;;;;;;9.30;80.70;;;;;;5091222;28;20342;-74
2022/03/11 04:19:37;;;;;;;;;;;9.30;80.60;;;;;;5091332;28;19916;-74
2022/03/11 04:22:02;;;;;;;;;;;9.30;80.70;;;;;;5091109;28;19956;-74
2022/03/11 04:24:28;;;;;;;;;;;9.30;80.90;;;;;;5091042;28;19916;-74
2022/03/11 04:26:54;;;;;;;;;;;9.30;80.90;;;;;;5090918;28;19961;-74
2022/03/11 04:29:20;;;;;;;;;;;9.30;81.00;;;;;;5090892;28;19920;-74
2022/03/11 04:31:45;;;;;;;;;;;9.30;81.10;;;;;;5089706;28;20420;-74
2022/03/11 04:34:11;;;;;;;;;;;9.30;81.10;;;;;;5089603;28;20014;-74
2022/03/11 04:36:38;;;;;;;;;;;9.30;81.10;;;;;;5090759;28;20364;-74
2022/03/11 04:39:05;;;;;;;;;;;9.30;81.30;;;;;;5090980;28;19989;-74
2022/03/11 04:41:31;;;;;;;;;;;9.30;81.50;;;;;;5090824;28;19956;-74
2022/03/11 04:43:56;;;;;;;;;;;9.30;81.50;;;;;;5090660;28;19947;-74
2022/03/11 04:46:22;;;;;;;;;;;9.30;81.70;;;;;;5090669;28;20008;-74
2022/03/11 04:48:49;;;;;;;;;;;9.30;81.90;;;;;;5090653;28;19916;-74
2022/03/11 04:51:15;;;;;;;;;;;9.30;82.10;;;;;;5090445;28;19938;-74
2022/03/11 04:53:40;;;;;;;;;;;9.30;82.20;;;;;;5090491;28;19912;-74
2022/03/11 04:56:06;;;;;;;;;;;9.30;82.30;;;;;;5090110;28;19916;-74
2022/03/11 04:58:32;;;;;;;;;;;9.30;82.20;;;;;;5088980;28;19982;-74
2022/03/11 05:00:57;;;;;;;;;;;9.30;82.30;;;;;;5090216;28;19999;-74
2022/03/11 05:03:23;;;;;;;;;;;9.30;82.20;;;;;;5090226;28;19912;-73
2022/03/11 05:05:48;;;;;;;;;;;9.30;82.30;;;;;;5090103;28;19935;-74
2022/03/11 05:08:14;;;;;;;;;;;9.40;82.40;;;;;;5090284;28;20358;-74
2022/03/11 05:10:39;;;;;;;;;;;9.40;82.40;;;;;;5090138;28;19926;-74
2022/03/11 05:13:05;;;;;;;;;;;9.40;82.40;;;;;;5088999;28;19967;-74
2022/03/11 05:15:30;;;;;;;;;;;9.50;83.00;;;;;;5090047;28;19916;-74
2022/03/11 05:17:56;;;;;;;;;;;9.50;82.40;;;;;;5090016;28;19915;-74
2022/03/11 05:20:22;;;;;;;;;;;9.50;82.50;;;;;;5090034;28;19918;-74
2022/03/11 05:22:47;;;;;;;;;;;9.50;82.60;;;;;;5090305;28;20335;-74
2022/03/11 05:25:13;;;;;;;;;;;9.60;82.70;;;;;;5089987;28;19961;-74
2022/03/11 05:27:38;;;;;;;;;;;9.60;82.80;;;;;;5089811;28;19919;-74
2022/03/11 05:30:05;;;;;;;;;;;9.60;82.80;;;;;;5089688;28;20293;-74
2022/03/11 05:32:31;;;;;;;;;;;9.60;83.00;;;;;;5089734;28;19961;-74
2022/03/11 05:34:56;;;;;;;;;;;9.60;83.00;;;;;;5089465;28;19924;-74
2022/03/11 05:37:22;;;;;;;;;;;9.60;83.00;;;;;;5089526;28;20057;-74
2022/03/11 05:39:48;;;;;;;;;;;9.70;83.20;;;;;;5089581;28;20370;-74
2022/03/11 05:42:13;;;;;;;;;;;9.70;83.30;;;;;;5089473;28;19915;-74
2022/03/11 05:44:39;;;;;;;;;;;9.70;83.30;;;;;;5089434;28;19912;-74
2022/03/11 05:47:05;;;;;;;;;;;9.80;83.50;;;;;;5089266;28;20058;-74
2022/03/11 05:49:30;;;;;;;;;;;9.80;83.80;;;;;;5089467;28;19923;-74
2022/03/11 05:51:56;;;;;;;;;;;9.80;83.70;;;;;;5089254;28;19913;-74
2022/03/11 05:54:21;;;;;;;;;;;9.80;83.80;;;;;;5087962;28;20014;-74
2022/03/11 05:56:53;;;;;;;;;;;9.90;84.00;;;;;;5087818;28;19908;-74
2022/03/11 05:59:19;;;;;;;;;;;9.90;84.10;;;;;;5089343;28;19915;-74
2022/03/11 06:01:44;;;;;;;;;;;9.90;84.20;;;;;;5087925;28;19912;-74
2022/03/11 06:04:11;;;;;;;;;;;9.90;84.10;;;;;;5089069;28;19913;-74
2022/03/11 06:06:37;;;;;;;;;;;9.90;84.30;;;;;;5088999;28;19912;-74
2022/03/11 06:09:03;;;;;;;;;;;9.90;84.20;;;;;;5088625;28;19916;-74
2022/03/11 06:11:28;;;;;;;;;;;9.90;84.30;;;;;;5089048;28;20006;-74
2022/03/11 06:13:54;;;;;;;;;;;9.90;84.60;;;;;;5088942;28;19924;-74
2022/03/11 06:16:19;;;;;;;;;;;9.90;84.60;;;;;;5087363;28;19970;-74
2022/03/11 06:18:45;;;;;;;;;;;9.90;84.60;;;;;;5088943;28;20610;-74
2022/03/11 06:21:11;;;;;;;;;;;9.90;84.70;;;;;;5088734;28;20015;-74
2022/03/11 06:23:37;;;;;;;;;;;9.90;84.70;;;;;;5088762;28;19918;-74
2022/03/11 06:26:03;;;;;;;;;;;10.00;84.70;;;;;;5088679;28;20337;-74
2022/03/11 06:28:29;;;;;;;;;;;9.90;85.00;;;;;;5088608;28;19908;-74
2022/03/11 06:30:54;;;;;;;;;;;9.90;85.00;;;;;;5088470;28;19909;-74
2022/03/11 06:33:23;;;;;;;;;;;9.90;85.10;;;;;;5088882;28;19939;-74
2022/03/11 06:35:49;;;;;;;;;;;9.90;85.00;;;;;;5087117;28;19940;-74
2022/03/11 06:38:15;;;;;;;;;;;9.90;85.20;;;;;;5088473;28;19962;-74
2022/03/11 06:40:40;;;;;;;;;;;9.90;85.50;;;;;;5088470;28;20353;-74
2022/03/11 06:43:06;;;;;;;;;;;10.00;85.50;;;;;;5088409;28;20270;-74
2022/03/11 06:45:31;;;;;;;;;;;10.00;85.40;;;;;;5088469;28;19913;-74
2022/03/11 06:47:57;;;;;;;;;;;10.00;85.60;;;;;;5087086;28;20366;-73
2022/03/11 06:50:23;;;;;;;;;;;10.00;85.70;;;;;;5088116;28;19920;-74
2022/03/11 06:52:48;;;;;;;;;;;10.00;85.90;;;;;;5088111;28;20674;-74
2022/03/11 06:55:14;;;;;;;;;;;10.00;85.90;;;;;;5088051;28;20362;-74
2022/03/11 06:57:40;;;;;;;;;;;10.00;85.90;;;;;;5087966;28;19913;-74
2022/03/11 07:00:07;;;;;;;;;;;10.00;86.00;;;;;;5088185;28;19908;-74
2022/03/11 07:02:34;;;;;;;;;;;10.00;86.00;;;;;;5086444;28;19943;-74
2022/03/11 07:04:59;;;;;;;;;;;10.10;86.30;;;;;;5087975;28;19916;-74
2022/03/11 07:07:28;;;;;;;;;;;10.10;86.30;;;;;;5087942;28;19916;-74
2022/03/11 07:09:54;;;;;;;;;;;10.10;86.30;;;;;;5086424;28;20426;-74
2022/03/11 07:12:19;;;;;;;;;;;10.20;86.50;;;;;;5087917;28;20008;-74
2022/03/11 07:14:45;;;;;;;;;;;10.20;86.50;;;;;;5087881;28;19916;-74
2022/03/11 07:17:11;;;;;;;;;;;10.20;86.50;;;;;;5087770;28;19908;-74
2022/03/11 07:19:36;;;;;;;;;;;10.20;86.90;;;;;;5087875;28;19916;-75
2022/03/11 07:22:03;;;;;;;;;;;10.20;87.10;;;;;;5073027;28;19957;-74
2022/03/11 07:24:29;;;;;;;;;;;10.20;87.00;;;;;;5090812;28;19919;-74
2022/03/11 07:26:54;;;;;;;;;;;10.30;87.30;;;;;;5091796;28;19908;-74
2022/03/11 07:29:20;;;;;;;;;;;10.30;87.50;;;;;;5091689;28;19965;-75
2022/03/11 07:31:46;;;;;;;;;;;10.30;87.60;;;;;;5091575;28;19908;-74
2022/03/11 07:34:11;;;;;;;;;;;10.30;87.90;;;;;;5090470;28;19911;-74
2022/03/11 07:36:37;;;;;;;;;;;10.20;87.80;;;;;;5091647;28;19925;-74
2022/03/11 07:39:03;;;;;;;;;;;10.30;87.90;;;;;;5091508;28;19995;-74
2022/03/11 07:41:29;;;;;;;;;;;10.30;88.00;;;;;;5091647;28;20382;-75
2022/03/11 07:43:55;;;;;;;;;;;10.30;88.20;;;;;;5091612;28;19908;-74
2022/03/11 07:46:23;;;;;;;;;;;10.30;88.40;;;;;;5091420;28;19937;-74
2022/03/11 07:48:51;;;;;;;;;;;10.30;88.30;;;;;;5091400;28;19912;-74
2022/03/11 07:51:17;;;;;;;;;;;10.30;88.30;;;;;;5091580;28;19908;-74
2022/03/11 07:53:43;;;;;;;;;;;10.30;88.30;;;;;;5091018;28;19962;-74
2022/03/11 07:56:10;;;;;;;;;;;10.30;88.40;;;;;;5089619;28;19912;-74
2022/03/11 07:58:36;;;;;;;;;;;10.40;89.00;;;;;;5091333;28;20019;-73
2022/03/11 08:01:01;;;;;;;;;;;10.40;89.00;;;;;;5089936;28;20419;-73
2022/03/11 08:03:27;;;;;;;;;;;10.40;89.20;;;;;;5089678;28;19908;-74
2022/03/11 08:05:52;;;;;;;;;;;10.40;89.00;;;;;;5090748;28;20035;-73
2022/03/11 08:08:18;;;;;;;;;;;10.40;89.00;;;;;;5090622;28;19947;-73
2022/03/11 08:10:44;;;;;;;;;;;10.40;89.50;;;;;;5091023;28;19912;-74
2022/03/11 08:13:10;;;;;;;;;;;10.40;89.50;;;;;;5090943;28;19922;-74
2022/03/11 08:15:35;;;;;;;;;;;10.40;89.70;;;;;;5089338;28;19919;-73
2022/03/11 08:18:02;;;;;;;;;;;10.40;89.70;;;;;;5090780;28;19918;-73
2022/03/11 08:20:28;;;;;;;;;;;10.40;90.00;;;;;;5090919;28;19908;-73
2022/03/11 08:22:54;;;;;;;;;;;10.40;90.00;;;;;;5089390;28;20366;-73
2022/03/11 08:25:20;;;;;;;;;;;10.40;90.10;;;;;;5091917;28;19917;-73
2022/03/11 08:27:46;;;;;;;;;;;10.30;90.10;;;;;;5090614;28;19919;-72
2022/03/11 08:30:12;;;;;;;;;;;10.20;90.20;;;;;;5089735;28;20300;-73
2022/03/11 08:32:38;;;;;;;;;;;10.20;90.20;;;;;;5089574;28;20267;-74
2022/03/11 08:35:04;;;;;;;;;;;10.20;90.50;;;;;;5090379;28;20337;-73
2022/03/11 08:37:30;;;;;;;;;;;10.20;90.60;;;;;;5090181;28;19912;-74
2022/03/11 08:39:56;;;;;;;;;;;10.20;90.60;;;;;;5088916;28;20231;-73
2022/03/11 08:42:21;;;;;;;;;;;10.10;90.60;;;;;;5088448;28;19920;-73
2022/03/11 08:44:47;;;;;;;;;;;10.10;90.80;;;;;;5088455;28;19913;-73
2022/03/11 08:47:13;;;;;;;;;;;10.10;90.80;;;;;;5089694;28;19970;-73
2022/03/11 08:49:38;;;;;;;;;;;10.20;91.00;;;;;;5089574;28;20346;-73
2022/03/11 08:52:04;;;;;;;;;;;10.20;91.00;;;;;;5089323;28;19916;-73
2022/03/11 08:54:30;;;;;;;;;;;10.20;91.30;;;;;;5089249;28;19912;-73
2022/03/11 08:56:55;;;;;;;;;;;10.20;91.40;;;;;;5089211;28;19912;-73
2022/03/11 08:59:21;;;;;;;;;;;10.20;91.30;;;;;;5089472;28;20355;-73
2022/03/11 09:01:47;;;;;;;;;;;10.30;91.30;;;;;;5087959;28;19919;-74
2022/03/11 09:04:13;;;;;;;;;;;10.20;91.50;;;;;;5090558;28;19908;-74
2022/03/11 09:06:38;;;;;;;;;;;10.20;91.40;;;;;;5090631;28;19915;-74
2022/03/11 09:09:04;;;;;;;;;;;10.20;91.50;;;;;;5090892;28;19916;-74
2022/03/11 09:11:31;;;;;;;;;;;10.30;91.50;;;;;;5090485;28;20339;-75
2022/03/11 09:13:56;;;;;;;;;;;10.30;91.60;;;;;;5088822;28;19951;-75
2022/03/11 09:16:22;;;;;;;;;;;10.30;91.50;;;;;;5090797;28;19954;-75
2022/03/11 09:18:48;;;;;;;;;;;10.40;91.50;;;;;;5090197;28;19928;-74
2022/03/11 09:21:13;;;;;;;;;;;10.40;91.60;;;;;;5088913;28;19923;-74
2022/03/11 09:23:39;;;;;;;;;;;10.40;91.70;;;;;;5090115;28;19915;-74
2022/03/11 09:26:05;;;;;;;;;;;10.30;91.70;;;;;;5089760;28;19981;-74
2022/03/11 09:28:33;;;;;;;;;;;10.40;91.90;;;;;;5089659;28;19908;-76
2022/03/11 09:31:01;;;;;;;;;;;10.40;91.90;;;;;;5087785;28;19912;-74
2022/03/11 09:33:26;;;;;;;;;;;10.40;92.00;;;;;;5087695;28;19912;-74
2022/03/11 09:35:52;;;;;;;;;;;10.40;92.00;;;;;;5089039;28;19924;-74
2022/03/11 09:38:18;;;;;;;;;;;10.40;91.90;;;;;;5088910;28;19916;-73
2022/03/11 09:40:44;;;;;;;;;;;10.40;91.90;;;;;;5086311;28;19912;-74
2022/03/11 09:43:11;;;;;;;;;;;10.40;91.90;;;;;;5088422;28;19916;-74
2022/03/11 09:45:37;;;;;;;;;;;10.40;91.90;;;;;;5089236;28;19912;-74
2022/03/11 09:48:03;;;;;;;;;;;10.40;92.00;;;;;;5089060;28;20385;-74
2022/03/11 09:50:29;;;;;;;;;;;10.40;92.00;;;;;;5089105;28;20328;-74
2022/03/11 09:52:55;;;;;;;;;;;10.30;91.90;;;;;;5089365;28;19908;-73
2022/03/11 09:55:20;;;;;;;;;;;10.40;92.00;;;;;;5088673;28;19961;-73
2022/03/11 09:57:46;;;;;;;;;;;10.40;92.00;;;;;;5088981;28;19996;-73
2022/03/11 10:00:12;;;;;;;;;;;10.40;92.10;;;;;;5088717;28;20318;-71
2022/03/11 10:02:40;;;;;;;;;;;10.30;92.00;;;;;;5088721;28;20298;-74
2022/03/11 10:05:06;;;;;;;;;;;10.40;92.10;;;;;;5089013;28;20350;-74
2022/03/11 10:07:31;;;;;;;;;;;10.40;92.10;;;;;;5089097;28;19952;-73
2022/03/11 10:10:10;;;;;;;;;;;10.40;92.00;;;;;;5085816;28;19927;-73
2022/03/11 10:12:39;;;;;;;;;;;10.30;92.10;;;;;;5087130;28;19913;-74
2022/03/11 10:15:05;;;;;;;;;;;10.30;92.20;;;;;;5083266;28;19916;-74
2022/03/11 10:17:38;;;;;;;;;;;10.30;92.30;;;;;;5077637;28;19916;-74
2022/03/11 10:20:07;;;;;;;;;;;10.30;92.40;;;;;;5075060;28;19914;-75
2022/03/11 10:22:33;;;;;;;;;;;10.20;92.50;;;;;;5084190;28;20399;-74
2022/03/11 10:25:01;;;;;;;;;;;10.20;92.70;;;;;;5078010;28;19958;-75
2022/03/11 10:27:26;;;;;;;;;;;10.20;92.60;;;;;;5088032;28;19908;-74
2022/03/11 10:29:56;;;;;;;;;;;10.20;92.70;;;;;;5088422;28;19918;-74
2022/03/11 10:32:24;;;;;;;;;;;10.10;92.80;;;;;;5077777;28;19943;-73
2022/03/11 10:34:50;;;;;;;;;;;10.10;92.60;;;;;;5084817;28;20235;-74
2022/03/11 10:37:16;;;;;;;;;;;10.20;92.80;;;;;;5088251;28;19917;-75
2022/03/11 10:39:43;;;;;;;;;;;10.10;92.70;;;;;;5083566;28;19921;-74
2022/03/11 10:42:12;;;;;;;;;;;10.20;92.70;;;;;;5081373;28;19913;-74
2022/03/11 10:44:38;;;;;;;;;;;10.10;92.80;;;;;;5083551;28;19919;-74
2022/03/11 10:47:24;;;;;;;;;;;10.20;92.90;;;;;;5083639;28;19985;-74
2022/03/11 10:49:50;;;;;;;;;;;10.20;92.90;;;;;;5084470;28;19969;-73
2022/03/11 10:52:33;;;;;;;;;;;10.20;92.90;;;;;;5081945;28;20259;-74
2022/03/11 10:54:59;;;;;;;;;;;10.30;92.90;;;;;;5085991;28;19915;-73
2022/03/11 10:57:38;;;;;;;;;;;10.30;92.80;;;;;;5079433;28;19977;-74
2022/03/11 11:00:23;;;;;;;;;;;10.40;92.90;;;;;;5100770;28;19908;-73
2022/03/11 11:02:49;;;;;;;;;;;10.40;92.80;;;;;;5093061;28;19997;-73
2022/03/11 11:05:15;;;;;;;;;;;10.40;92.80;;;;;;5094429;28;20320;-75
2022/03/11 11:07:41;;;;;;;;;;;10.50;92.80;;;;;;5095884;28;20338;-73
2022/03/11 11:10:07;;;;;;;;;;;10.50;92.70;;;;;;5100236;28;19959;-75
2022/03/11 11:12:33;;;;;;;;;;;10.60;92.60;;;;;;5088470;28;19974;-73
2022/03/11 11:14:58;;;;;;;;;;;10.60;92.50;;;;;;5088205;28;19927;-74
2022/03/11 11:17:25;;;;;;;;;;;10.60;92.50;;;;;;5088506;28;20478;-75
2022/03/11 11:19:53;;;;;;;;;;;10.60;92.50;;;;;;5086951;28;20246;-74
2022/03/11 11:22:18;;;;;;;;;;;10.70;92.60;;;;;;5087947;28;19947;-73
2022/03/11 11:24:44;;;;;;;;;;;10.70;92.60;;;;;;5087777;28;19946;-73
2022/03/11 11:27:11;;;;;;;;;;;10.60;92.60;;;;;;5087816;28;19920;-73
2022/03/11 11:29:37;;;;;;;;;;;10.70;92.70;;;;;;5087589;28;19912;-76
2022/03/11 11:32:06;;;;;;;;;;;10.70;92.70;;;;;;5096098;28;20288;-74
2022/03/11 11:34:33;;;;;;;;;;;10.70;92.70;;;;;;5092214;28;19908;-71
2022/03/11 11:37:03;;;;;;;;;;;10.70;92.80;;;;;;5088934;28;19920;-75
2022/03/11 11:39:36;;;;;;;;;;;10.70;92.80;;;;;;5082873;28;19908;-72
2022/03/11 11:42:06;;;;;;;;;;;10.70;92.90;;;;;;5087814;28;20358;-73
2022/03/11 11:44:33;;;;;;;;;;;10.70;92.80;;;;;;5088090;28;19912;-74
2022/03/11 11:47:06;;;;;;;;;;;10.70;92.80;;;;;;5086840;28;19908;-73
2022/03/11 11:49:52;;;;;;;;;;;10.60;92.90;;;;;;5082277;28;20410;-74
2022/03/11 11:52:28;;;;;;;;;;;10.60;92.80;;;;;;5084927;28;19912;-73
2022/03/11 11:55:11;;;;;;;;;;;10.60;92.90;;;;;;5086829;28;19912;-73
2022/03/11 11:57:37;;;;;;;;;;;10.60;93.00;;;;;;5086664;28;20250;-72
2022/03/11 12:00:08;;;;;;;;;;;10.60;93.10;;;;;;5087782;28;19998;-73
2022/03/11 12:02:34;;;;;;;;;;;10.60;93.10;;;;;;5096164;28;20250;-74
2022/03/11 12:05:00;;;;;;;;;;;10.50;93.30;;;;;;5091342;28;19922;-73
2022/03/11 12:07:45;;;;;;;;;;;10.50;93.30;;;;;;5099027;28;19916;-73
2022/03/11 12:10:24;;;;;;;;;;;10.50;93.30;;;;;;5095387;28;20021;-73
2022/03/11 12:12:50;;;;;;;;;;;10.50;93.30;;;;;;5092007;28;20020;-74
2022/03/11 12:15:16;;;;;;;;;;;10.60;93.40;;;;;;5091305;28;19989;-74
2022/03/11 12:17:42;;;;;;;;;;;10.70;93.50;;;;;;5091280;28;19922;-73
2022/03/11 12:20:23;;;;;;;;;;;10.70;93.50;;;;;;5091002;28;20321;-75
2022/03/11 12:22:57;;;;;;;;;;;10.70;93.40;;;;;;5089680;28;20440;-73
2022/03/11 12:25:24;;;;;;;;;;;10.80;93.40;;;;;;5087721;28;19939;-74
2022/03/11 12:27:59;;;;;;;;;;;10.80;93.60;;;;;;5090874;28;20003;-74
2022/03/11 12:30:38;;;;;;;;;;;10.90;93.70;;;;;;5090993;28;20003;-74
2022/03/11 12:33:08;;;;;;;;;;;10.90;93.60;;;;;;5089825;28;19908;-75
2022/03/11 12:35:34;;;;;;;;;;;11.00;93.90;;;;;;5089100;28;19928;-74
2022/03/11 12:38:00;;;;;;;;;;;11.10;94.10;;;;;;5090691;28;20033;-74
2022/03/11 12:40:26;;;;;;;;;;;11.20;94.00;;;;;;5090973;28;19916;-73
2022/03/11 12:43:03;;;;;;;;;;;11.30;94.40;;;;;;5090441;28;20007;-74
2022/03/11 12:45:35;;;;;;;;;;;11.40;94.50;;;;;;5090594;28;19945;-73
2022/03/11 12:48:01;;;;;;;;;;;11.50;94.80;;;;;;5089744;28;19908;-73
2022/03/11 12:50:27;;;;;;;;;;;11.70;94.60;;;;;;5088908;28;19926;-76
2022/03/11 12:52:54;;;;;;;;;;;11.90;95.00;;;;;;5089195;28;19915;-72
2022/03/11 12:55:20;;;;;;;;;;;12.10;94.80;;;;;;5089585;28;19966;-74
2022/03/11 12:57:50;;;;;;;;;;;12.20;95.00;;;;;;5090425;28;19912;-73
2022/03/11 13:00:20;;;;;;;;;;;12.40;95.20;;;;;;5090200;28;20410;-73
2022/03/11 13:02:47;;;;;;;;;;;12.60;94.90;;;;;;5090348;28;19961;-73
2022/03/11 13:05:19;;;;;;;;;;;12.60;94.90;;;;;;5090252;28;20366;-74
2022/03/11 13:07:45;;;;;;;;;;;12.80;95.00;;;;;;5090288;28;19977;-74
2022/03/11 13:10:18;;;;;;;;;;;12.90;94.80;;;;;;5090560;28;20564;-74
2022/03/11 13:12:44;;;;;;;;;;;12.90;94.50;;;;;;5089177;28;20309;-75
2022/03/11 13:15:10;;;;;;;;;;;13.10;94.50;;;;;;5089008;28;19938;-75
2022/03/11 13:17:39;;;;;;;;;;;13.20;94.60;;;;;;5089600;28;20004;-74
2022/03/11 13:20:05;;;;;;;;;;;13.50;94.50;;;;;;5089092;28;19908;-74
2022/03/11 13:22:31;;;;;;;;;;;13.80;94.10;;;;;;5089694;28;19908;-71
2022/03/11 13:25:04;;;;;;;;;;;14.00;94.00;;;;;;5089618;28;19908;-73
2022/03/11 13:27:36;;;;;;;;;;;14.20;93.40;;;;;;5089218;28;19923;-74
2022/03/11 13:30:05;;;;;;;;;;;14.10;93.10;;;;;;5088973;28;20420;-75
2022/03/11 13:32:31;;;;;;;;;;;14.00;93.00;;;;;;5089602;28;19912;-73
2022/03/11 13:34:56;;;;;;;;;;;13.90;92.90;;;;;;5087720;28;21293;-74
2022/03/11 13:37:22;;;;;;;;;;;13.80;93.00;;;;;;5089561;28;20049;-74
2022/03/11 13:40:10;;;;;;;;;;;13.90;93.70;;;;;;5089094;28;20369;-74
2022/03/11 13:42:35;;;;;;;;;;;14.20;93.80;;;;;;5086837;28;19977;-75
2022/03/11 13:45:04;;;;;;;;;;;14.50;93.40;;;;;;5089143;28;20243;-74
2022/03/11 13:47:29;;;;;;;;;;;14.80;93.30;;;;;;5090062;28;19916;-67
2022/03/11 13:50:04;;;;;;;;;;;15.10;93.00;;;;;;5089662;28;19923;-75
2022/03/11 13:52:38;;;;;;;;;;;15.10;92.50;;;;;;5086333;28;19922;-75
2022/03/11 13:55:05;;;;;;;;;;;15.10;92.50;;;;;;5089648;28;19909;-77
2022/03/11 13:57:34;;;;;;;;;;;15.20;92.30;;;;;;5089730;28;19908;-75
2022/03/11 14:00:15;;;;;;;;;;;15.20;92.00;;;;;;5089268;28;20499;-74
2022/03/11 14:02:41;;;;;;;;;;;15.10;91.80;;;;;;5087242;28;19908;-73
2022/03/11 14:05:13;;;;;;;;;;;15.10;91.70;;;;;;5089320;28;19920;-75
2022/03/11 14:07:38;;;;;;;;;;;15.10;91.50;;;;;;5088753;28;19912;-75
2022/03/11 14:10:05;;;;;;;;;;;15.00;91.40;;;;;;5087906;28;19953;-75
2022/03/11 14:12:31;;;;;;;;;;;15.00;91.50;;;;;;5088913;28;19908;-76
2022/03/11 14:15:07;;;;;;;;;;;15.00;91.30;;;;;;5089503;28;19908;-73
2022/03/11 14:17:33;;;;;;;;;;;15.00;91.40;;;;;;5081737;28;20382;-74
2022/03/11 14:19:59;;;;;;;;;;;15.00;91.40;;;;;;5087794;28;19966;-75
2022/03/11 14:22:25;;;;;;;;;;;15.00;91.20;;;;;;5089382;28;19965;-76